Terminal Aerodrome Forecast
Issued by NWS

Home | Current Version | Previous Version | Text Only | Print | Product List | Glossary On
Versions: 1 2 3 4 5 6 7 8 9 10 11 12 13 14 15 16 17 18 19 20 21 22 23 24 25 26 27 28
000
FTUS46 KLOX 260300 AAA
TAFLAX
TAF AMD
KLAX 260313Z 2603/2706 26014KT P6SM SKC
     FM260900 VRB04KT P6SM BKN015
     FM261600 28006KT P6SM BKN020
     FM262100 26010KT P6SM SKC
     FM270400 VRB03KT P6SM SKC=

USA.gov is the U.S. government's official web portal to all federal, state and local government web resources and services.